sensor_id;sensor_type;location;lat;lon;timestamp;temperature;humidity
4749;DHT22;2388;53.582;9.962;2023-12-22T00:00:10;6.50;99.90
4749;DHT22;2388;53.582;9.962;2023-12-22T00:02:36;6.50;99.90
4749;DHT22;2388;53.582;9.962;2023-12-22T00:05:01;6.50;99.90
4749;DHT22;2388;53.582;9.962;2023-12-22T00:07:27;6.50;99.90
4749;DHT22;2388;53.582;9.962;2023-12-22T00:09:53;6.50;99.90
4749;DHT22;2388;53.582;9.962;2023-12-22T00:12:19;6.50;99.90
4749;DHT22;2388;53.582;9.962;2023-12-22T00:14:44;6.50;99.90
4749;DHT22;2388;53.582;9.962;2023-12-22T00:17:10;6.50;99.90
4749;DHT22;2388;53.582;9.962;2023-12-22T00:19:35;6.50;99.90
4749;DHT22;2388;53.582;9.962;2023-12-22T00:22:01;6.40;99.90
4749;DHT22;2388;53.582;9.962;2023-12-22T00:24:28;6.40;99.90
4749;DHT22;2388;53.582;9.962;2023-12-22T00:26:54;6.40;99.90
4749;DHT22;2388;53.582;9.962;2023-12-22T00:29:19;6.40;99.90
4749;DHT22;2388;53.582;9.962;2023-12-22T00:31:45;6.40;99.90
4749;DHT22;2388;53.582;9.962;2023-12-22T00:34:10;6.40;99.90
4749;DHT22;2388;53.582;9.962;2023-12-22T00:36:36;6.40;99.90
4749;DHT22;2388;53.582;9.962;2023-12-22T00:39:01;6.50;99.90
4749;DHT22;2388;53.582;9.962;2023-12-22T00:41:28;6.50;99.90
4749;DHT22;2388;53.582;9.962;2023-12-22T00:43:53;6.50;99.90
4749;DHT22;2388;53.582;9.962;2023-12-22T00:46:19;6.40;99.90
4749;DHT22;2388;53.582;9.962;2023-12-22T00:48:45;6.30;99.90
4749;DHT22;2388;53.582;9.962;2023-12-22T00:51:11;6.20;99.90
4749;DHT22;2388;53.582;9.962;2023-12-22T00:53:36;6.20;99.90
4749;DHT22;2388;53.582;9.962;2023-12-22T00:56:02;6.10;99.90
4749;DHT22;2388;53.582;9.962;2023-12-22T00:58:31;6.20;99.90
4749;DHT22;2388;53.582;9.962;2023-12-22T01:00:56;6.10;99.90
4749;DHT22;2388;53.582;9.962;2023-12-22T01:03:22;6.10;99.90
4749;DHT22;2388;53.582;9.962;2023-12-22T01:05:48;6.10;99.90
4749;DHT22;2388;53.582;9.962;2023-12-22T01:08:13;6.10;99.90
4749;DHT22;2388;53.582;9.962;2023-12-22T01:10:38;6.10;99.90
4749;DHT22;2388;53.582;9.962;2023-12-22T01:13:04;6.00;99.90
4749;DHT22;2388;53.582;9.962;2023-12-22T01:15:29;6.00;99.90
4749;DHT22;2388;53.582;9.962;2023-12-22T01:17:55;5.90;99.90
4749;DHT22;2388;53.582;9.962;2023-12-22T01:20:20;5.90;99.90
4749;DHT22;2388;53.582;9.962;2023-12-22T01:22:46;6.00;99.90
4749;DHT22;2388;53.582;9.962;2023-12-22T01:25:11;5.90;99.90
4749;DHT22;2388;53.582;9.962;2023-12-22T01:27:37;5.80;99.90
4749;DHT22;2388;53.582;9.962;2023-12-22T01:30:03;5.60;99.90
4749;DHT22;2388;53.582;9.962;2023-12-22T01:32:28;5.60;99.90
4749;DHT22;2388;53.582;9.962;2023-12-22T01:34:59;5.40;99.90
4749;DHT22;2388;53.582;9.962;2023-12-22T01:37:29;5.20;99.90
4749;DHT22;2388;53.582;9.962;2023-12-22T01:39:54;5.20;99.90
4749;DHT22;2388;53.582;9.962;2023-12-22T01:42:20;4.90;99.90
4749;DHT22;2388;53.582;9.962;2023-12-22T01:44:45;4.80;99.90
4749;DHT22;2388;53.582;9.962;2023-12-22T01:47:11;4.60;99.90
4749;DHT22;2388;53.582;9.962;2023-12-22T01:49:36;4.40;99.90
4749;DHT22;2388;53.582;9.962;2023-12-22T01:52:02;4.40;99.90
4749;DHT22;2388;53.582;9.962;2023-12-22T01:54:29;4.40;99.90
4749;DHT22;2388;53.582;9.962;2023-12-22T01:56:55;4.40;99.90
4749;DHT22;2388;53.582;9.962;2023-12-22T01:59:21;4.30;99.90
4749;DHT22;2388;53.582;9.962;2023-12-22T02:01:47;4.30;99.90
4749;DHT22;2388;53.582;9.962;2023-12-22T02:04:14;4.30;99.90
4749;DHT22;2388;53.582;9.962;2023-12-22T02:06:40;4.30;99.90
4749;DHT22;2388;53.582;9.962;2023-12-22T02:09:06;4.30;99.90
4749;DHT22;2388;53.582;9.962;2023-12-22T02:11:32;4.30;99.90
4749;DHT22;2388;53.582;9.962;2023-12-22T02:13:57;4.30;99.90
4749;DHT22;2388;53.582;9.962;2023-12-22T02:16:39;4.30;99.90
4749;DHT22;2388;53.582;9.962;2023-12-22T02:19:40;4.40;99.90
4749;DHT22;2388;53.582;9.962;2023-12-22T02:22:08;4.40;99.90
4749;DHT22;2388;53.582;9.962;2023-12-22T02:24:34;4.60;99.90
4749;DHT22;2388;53.582;9.962;2023-12-22T02:27:23;4.60;99.90
4749;DHT22;2388;53.582;9.962;2023-12-22T02:29:54;4.70;99.90
4749;DHT22;2388;53.582;9.962;2023-12-22T02:32:32;4.70;99.90
4749;DHT22;2388;53.582;9.962;2023-12-22T02:35:07;4.70;99.90
4749;DHT22;2388;53.582;9.962;2023-12-22T02:37:35;4.80;99.90
4749;DHT22;2388;53.582;9.962;2023-12-22T02:40:01;4.80;99.90
4749;DHT22;2388;53.582;9.962;2023-12-22T02:42:29;4.80;99.90
4749;DHT22;2388;53.582;9.962;2023-12-22T02:44:58;4.80;99.90
4749;DHT22;2388;53.582;9.962;2023-12-22T02:47:24;4.90;99.90
4749;DHT22;2388;53.582;9.962;2023-12-22T02:49:50;4.80;99.90
4749;DHT22;2388;53.582;9.962;2023-12-22T02:52:15;4.80;99.90
4749;DHT22;2388;53.582;9.962;2023-12-22T02:54:41;4.80;99.90
4749;DHT22;2388;53.582;9.962;2023-12-22T02:57:09;4.90;99.90
4749;DHT22;2388;53.582;9.962;2023-12-22T02:59:36;4.90;99.90
4749;DHT22;2388;53.582;9.962;2023-12-22T03:02:02;4.90;99.90
4749;DHT22;2388;53.582;9.962;2023-12-22T03:04:27;4.90;99.90
4749;DHT22;2388;53.582;9.962;2023-12-22T03:06:53;4.80;99.90
4749;DHT22;2388;53.582;9.962;2023-12-22T03:09:18;4.90;99.90
4749;DHT22;2388;53.582;9.962;2023-12-22T03:11:44;4.70;99.90
4749;DHT22;2388;53.582;9.962;2023-12-22T03:14:10;4.70;99.90
4749;DHT22;2388;53.582;9.962;2023-12-22T03:16:35;4.60;99.90
4749;DHT22;2388;53.582;9.962;2023-12-22T03:19:01;4.40;99.90
4749;DHT22;2388;53.582;9.962;2023-12-22T03:21:26;4.50;99.90
4749;DHT22;2388;53.582;9.962;2023-12-22T03:23:52;4.50;99.90
4749;DHT22;2388;53.582;9.962;2023-12-22T03:26:17;4.40;99.90
4749;DHT22;2388;53.582;9.962;2023-12-22T03:28:43;4.40;99.90
4749;DHT22;2388;53.582;9.962;2023-12-22T03:31:08;4.40;99.90
4749;DHT22;2388;53.582;9.962;2023-12-22T03:33:34;4.30;99.90
4749;DHT22;2388;53.582;9.962;2023-12-22T03:35:59;4.40;99.90
4749;DHT22;2388;53.582;9.962;2023-12-22T03:38:25;4.40;99.90
4749;DHT22;2388;53.582;9.962;2023-12-22T03:40:50;4.40;99.90
4749;DHT22;2388;53.582;9.962;2023-12-22T03:43:16;4.40;99.90
4749;DHT22;2388;53.582;9.962;2023-12-22T03:45:41;4.40;99.90
4749;DHT22;2388;53.582;9.962;2023-12-22T03:48:07;4.50;99.90
4749;DHT22;2388;53.582;9.962;2023-12-22T03:50:32;4.50;99.90
4749;DHT22;2388;53.582;9.962;2023-12-22T03:52:58;4.50;99.90
4749;DHT22;2388;53.582;9.962;2023-12-22T03:55:23;4.60;99.90
4749;DHT22;2388;53.582;9.962;2023-12-22T03:57:49;4.60;99.90
4749;DHT22;2388;53.582;9.962;2023-12-22T04:00:15;4.60;99.90
4749;DHT22;2388;53.582;9.962;2023-12-22T04:02:41;4.70;99.90
4749;DHT22;2388;53.582;9.962;2023-12-22T04:05:07;4.70;99.90
4749;DHT22;2388;53.582;9.962;2023-12-22T04:07:33;4.70;99.90
4749;DHT22;2388;53.582;9.962;2023-12-22T04:09:58;4.80;99.90
4749;DHT22;2388;53.582;9.962;2023-12-22T04:12:23;4.90;99.90
4749;DHT22;2388;53.582;9.962;2023-12-22T04:14:49;4.90;99.90
4749;DHT22;2388;53.582;9.962;2023-12-22T04:17:14;5.00;99.90
4749;DHT22;2388;53.582;9.962;2023-12-22T04:19:40;5.00;99.90
4749;DHT22;2388;53.582;9.962;2023-12-22T04:22:05;5.00;99.90
4749;DHT22;2388;53.582;9.962;2023-12-22T04:24:31;5.00;99.90
4749;DHT22;2388;53.582;9.962;2023-12-22T04:26:56;5.00;99.90
4749;DHT22;2388;53.582;9.962;2023-12-22T04:29:22;5.00;99.90
4749;DHT22;2388;53.582;9.962;2023-12-22T04:31:47;5.00;99.90
4749;DHT22;2388;53.582;9.962;2023-12-22T04:34:15;5.10;99.90
4749;DHT22;2388;53.582;9.962;2023-12-22T04:36:41;5.10;99.90
4749;DHT22;2388;53.582;9.962;2023-12-22T04:39:07;5.10;99.90
4749;DHT22;2388;53.582;9.962;2023-12-22T04:41:33;5.10;99.90
4749;DHT22;2388;53.582;9.962;2023-12-22T04:43:58;5.10;99.90
4749;DHT22;2388;53.582;9.962;2023-12-22T04:46:28;5.20;99.90
4749;DHT22;2388;53.582;9.962;2023-12-22T04:48:54;5.20;99.90
4749;DHT22;2388;53.582;9.962;2023-12-22T04:51:19;5.20;99.90
4749;DHT22;2388;53.582;9.962;2023-12-22T04:53:45;5.30;99.90
4749;DHT22;2388;53.582;9.962;2023-12-22T04:56:10;5.30;99.90
4749;DHT22;2388;53.582;9.962;2023-12-22T04:58:36;5.40;99.90
4749;DHT22;2388;53.582;9.962;2023-12-22T05:01:01;5.40;99.90
4749;DHT22;2388;53.582;9.962;2023-12-22T05:03:27;5.40;99.90
4749;DHT22;2388;53.582;9.962;2023-12-22T05:05:52;5.40;99.90
4749;DHT22;2388;53.582;9.962;2023-12-22T05:08:18;5.40;99.90
4749;DHT22;2388;53.582;9.962;2023-12-22T05:10:43;5.40;99.90
4749;DHT22;2388;53.582;9.962;2023-12-22T05:13:09;5.30;99.90
4749;DHT22;2388;53.582;9.962;2023-12-22T05:15:34;5.20;99.90
4749;DHT22;2388;53.582;9.962;2023-12-22T05:18:00;5.00;99.90
4749;DHT22;2388;53.582;9.962;2023-12-22T05:20:25;4.90;99.90
4749;DHT22;2388;53.582;9.962;2023-12-22T05:22:51;4.70;99.90
4749;DHT22;2388;53.582;9.962;2023-12-22T05:25:16;4.70;99.90
4749;DHT22;2388;53.582;9.962;2023-12-22T05:27:42;4.70;99.90
4749;DHT22;2388;53.582;9.962;2023-12-22T05:30:08;4.60;99.90
4749;DHT22;2388;53.582;9.962;2023-12-22T05:32:34;4.50;99.90
4749;DHT22;2388;53.582;9.962;2023-12-22T05:34:59;4.50;99.90
4749;DHT22;2388;53.582;9.962;2023-12-22T05:37:25;4.50;99.90
4749;DHT22;2388;53.582;9.962;2023-12-22T05:39:50;4.50;99.90
4749;DHT22;2388;53.582;9.962;2023-12-22T05:42:16;4.60;99.90
4749;DHT22;2388;53.582;9.962;2023-12-22T05:44:42;4.60;99.90
4749;DHT22;2388;53.582;9.962;2023-12-22T05:47:08;4.50;99.90
4749;DHT22;2388;53.582;9.962;2023-12-22T05:49:33;4.40;99.90
4749;DHT22;2388;53.582;9.962;2023-12-22T05:51:59;4.30;99.90
4749;DHT22;2388;53.582;9.962;2023-12-22T05:54:25;4.20;99.90
4749;DHT22;2388;53.582;9.962;2023-12-22T05:56:51;4.20;99.90
4749;DHT22;2388;53.582;9.962;2023-12-22T05:59:17;4.00;99.90
4749;DHT22;2388;53.582;9.962;2023-12-22T06:01:43;4.00;99.90
4749;DHT22;2388;53.582;9.962;2023-12-22T06:04:08;3.80;99.90
4749;DHT22;2388;53.582;9.962;2023-12-22T06:06:35;3.70;99.90
4749;DHT22;2388;53.582;9.962;2023-12-22T06:09:01;3.60;99.90
4749;DHT22;2388;53.582;9.962;2023-12-22T06:11:26;3.60;99.90
4749;DHT22;2388;53.582;9.962;2023-12-22T06:13:52;3.70;99.90
4749;DHT22;2388;53.582;9.962;2023-12-22T06:16:19;3.90;99.90
4749;DHT22;2388;53.582;9.962;2023-12-22T06:18:45;3.90;99.90
4749;DHT22;2388;53.582;9.962;2023-12-22T06:21:11;3.90;99.90
4749;DHT22;2388;53.582;9.962;2023-12-22T06:23:37;3.90;99.90
4749;DHT22;2388;53.582;9.962;2023-12-22T06:26:12;3.90;99.90
4749;DHT22;2388;53.582;9.962;2023-12-22T06:28:37;3.90;99.90
4749;DHT22;2388;53.582;9.962;2023-12-22T06:31:05;4.00;99.90
4749;DHT22;2388;53.582;9.962;2023-12-22T06:33:31;4.00;99.90
4749;DHT22;2388;53.582;9.962;2023-12-22T06:35:56;4.00;99.90
4749;DHT22;2388;53.582;9.962;2023-12-22T06:38:22;4.10;99.90
4749;DHT22;2388;53.582;9.962;2023-12-22T06:40:47;4.20;99.90
4749;DHT22;2388;53.582;9.962;2023-12-22T06:43:13;4.20;99.90
4749;DHT22;2388;53.582;9.962;2023-12-22T06:45:40;4.20;99.90
4749;DHT22;2388;53.582;9.962;2023-12-22T06:48:06;4.30;99.90
4749;DHT22;2388;53.582;9.962;2023-12-22T06:50:31;4.40;99.90
4749;DHT22;2388;53.582;9.962;2023-12-22T06:52:57;4.40;99.90
4749;DHT22;2388;53.582;9.962;2023-12-22T06:55:23;4.60;99.90
4749;DHT22;2388;53.582;9.962;2023-12-22T06:57:49;4.60;99.90
4749;DHT22;2388;53.582;9.962;2023-12-22T07:00:15;4.60;99.90
4749;DHT22;2388;53.582;9.962;2023-12-22T07:02:40;4.60;99.90
4749;DHT22;2388;53.582;9.962;2023-12-22T07:07:35;4.70;99.90
4749;DHT22;2388;53.582;9.962;2023-12-22T07:10:01;4.80;99.90
4749;DHT22;2388;53.582;9.962;2023-12-22T07:12:26;4.80;99.90
4749;DHT22;2388;53.582;9.962;2023-12-22T07:14:52;4.80;99.90
4749;DHT22;2388;53.582;9.962;2023-12-22T07:17:17;4.80;99.90
4749;DHT22;2388;53.582;9.962;2023-12-22T07:19:43;4.80;99.90
4749;DHT22;2388;53.582;9.962;2023-12-22T07:22:08;4.80;99.90
4749;DHT22;2388;53.582;9.962;2023-12-22T07:24:33;4.90;99.90
4749;DHT22;2388;53.582;9.962;2023-12-22T07:26:59;5.00;99.90
4749;DHT22;2388;53.582;9.962;2023-12-22T07:29:24;4.90;99.90
4749;DHT22;2388;53.582;9.962;2023-12-22T07:31:50;4.90;99.90
4749;DHT22;2388;53.582;9.962;2023-12-22T07:34:16;4.90;99.90
4749;DHT22;2388;53.582;9.962;2023-12-22T07:36:42;5.00;99.90
4749;DHT22;2388;53.582;9.962;2023-12-22T07:39:08;5.00;99.90
4749;DHT22;2388;53.582;9.962;2023-12-22T07:41:34;5.00;99.90
4749;DHT22;2388;53.582;9.962;2023-12-22T07:44:00;5.00;99.90
4749;DHT22;2388;53.582;9.962;2023-12-22T07:46:26;5.00;99.90
4749;DHT22;2388;53.582;9.962;2023-12-22T07:48:53;5.00;99.90
4749;DHT22;2388;53.582;9.962;2023-12-22T07:51:19;4.80;99.90
4749;DHT22;2388;53.582;9.962;2023-12-22T07:53:45;4.70;99.90
4749;DHT22;2388;53.582;9.962;2023-12-22T07:56:10;4.60;99.90
4749;DHT22;2388;53.582;9.962;2023-12-22T07:58:36;4.50;99.90
4749;DHT22;2388;53.582;9.962;2023-12-22T08:01:03;4.60;99.90
4749;DHT22;2388;53.582;9.962;2023-12-22T08:03:29;4.70;99.90
4749;DHT22;2388;53.582;9.962;2023-12-22T08:05:54;5.10;99.90
4749;DHT22;2388;53.582;9.962;2023-12-22T08:08:21;5.10;99.90
4749;DHT22;2388;53.582;9.962;2023-12-22T08:10:46;5.10;99.90
4749;DHT22;2388;53.582;9.962;2023-12-22T08:13:12;5.10;99.90
4749;DHT22;2388;53.582;9.962;2023-12-22T08:15:37;5.10;99.90
4749;DHT22;2388;53.582;9.962;2023-12-22T08:18:03;5.00;99.90
4749;DHT22;2388;53.582;9.962;2023-12-22T08:20:28;4.80;99.90
4749;DHT22;2388;53.582;9.962;2023-12-22T08:22:54;4.70;99.90
4749;DHT22;2388;53.582;9.962;2023-12-22T08:25:19;4.70;99.90
4749;DHT22;2388;53.582;9.962;2023-12-22T08:27:45;4.60;99.90
4749;DHT22;2388;53.582;9.962;2023-12-22T08:30:11;4.60;99.90
4749;DHT22;2388;53.582;9.962;2023-12-22T08:32:37;4.60;99.90
4749;DHT22;2388;53.582;9.962;2023-12-22T08:35:03;4.60;99.90
4749;DHT22;2388;53.582;9.962;2023-12-22T08:37:32;4.60;99.90
4749;DHT22;2388;53.582;9.962;2023-12-22T08:39:57;4.70;99.90
4749;DHT22;2388;53.582;9.962;2023-12-22T08:42:26;4.80;99.90
4749;DHT22;2388;53.582;9.962;2023-12-22T08:44:51;4.90;99.90
4749;DHT22;2388;53.582;9.962;2023-12-22T08:47:17;5.00;99.90
4749;DHT22;2388;53.582;9.962;2023-12-22T08:49:42;5.00;99.90
4749;DHT22;2388;53.582;9.962;2023-12-22T08:52:08;5.00;99.90
4749;DHT22;2388;53.582;9.962;2023-12-22T08:54:33;5.00;99.90
4749;DHT22;2388;53.582;9.962;2023-12-22T08:57:01;4.90;99.90
4749;DHT22;2388;53.582;9.962;2023-12-22T08:59:26;5.00;99.90
4749;DHT22;2388;53.582;9.962;2023-12-22T09:01:52;4.90;99.90
4749;DHT22;2388;53.582;9.962;2023-12-22T09:04:17;5.00;99.90
4749;DHT22;2388;53.582;9.962;2023-12-22T09:06:43;4.90;99.90
4749;DHT22;2388;53.582;9.962;2023-12-22T09:09:08;4.90;99.90
4749;DHT22;2388;53.582;9.962;2023-12-22T09:11:34;4.80;99.90
4749;DHT22;2388;53.582;9.962;2023-12-22T09:14:00;4.90;99.90
4749;DHT22;2388;53.582;9.962;2023-12-22T09:16:25;4.80;99.90
4749;DHT22;2388;53.582;9.962;2023-12-22T09:18:51;4.80;99.90
4749;DHT22;2388;53.582;9.962;2023-12-22T09:21:17;5.00;99.90
4749;DHT22;2388;53.582;9.962;2023-12-22T09:23:44;5.20;99.90
4749;DHT22;2388;53.582;9.962;2023-12-22T09:26:12;5.30;99.90
4749;DHT22;2388;53.582;9.962;2023-12-22T09:28:37;5.40;99.90
4749;DHT22;2388;53.582;9.962;2023-12-22T09:31:03;5.50;99.90
4749;DHT22;2388;53.582;9.962;2023-12-22T09:33:31;5.60;99.90
4749;DHT22;2388;53.582;9.962;2023-12-22T09:35:56;5.60;99.90
4749;DHT22;2388;53.582;9.962;2023-12-22T09:38:22;5.60;99.90
4749;DHT22;2388;53.582;9.962;2023-12-22T09:40:52;5.70;99.90
4749;DHT22;2388;53.582;9.962;2023-12-22T09:43:19;5.70;99.90
4749;DHT22;2388;53.582;9.962;2023-12-22T09:45:49;5.70;99.90
4749;DHT22;2388;53.582;9.962;2023-12-22T09:48:15;5.80;99.90
4749;DHT22;2388;53.582;9.962;2023-12-22T09:50:43;5.80;99.90
4749;DHT22;2388;53.582;9.962;2023-12-22T09:53:13;5.80;99.90
4749;DHT22;2388;53.582;9.962;2023-12-22T09:55:42;5.90;99.90
4749;DHT22;2388;53.582;9.962;2023-12-22T09:58:08;5.90;99.90
4749;DHT22;2388;53.582;9.962;2023-12-22T10:00:36;5.80;99.90
4749;DHT22;2388;53.582;9.962;2023-12-22T10:03:06;5.80;99.90
4749;DHT22;2388;53.582;9.962;2023-12-22T10:05:32;5.90;99.90
4749;DHT22;2388;53.582;9.962;2023-12-22T10:08:00;5.90;99.90
4749;DHT22;2388;53.582;9.962;2023-12-22T10:10:28;5.90;99.90
4749;DHT22;2388;53.582;9.962;2023-12-22T10:12:54;5.90;99.90
4749;DHT22;2388;53.582;9.962;2023-12-22T10:15:21;5.90;99.90
4749;DHT22;2388;53.582;9.962;2023-12-22T10:17:50;5.90;99.90
4749;DHT22;2388;53.582;9.962;2023-12-22T10:20:16;5.90;99.90
4749;DHT22;2388;53.582;9.962;2023-12-22T10:22:41;6.00;99.90
4749;DHT22;2388;53.582;9.962;2023-12-22T10:25:08;6.10;99.90
4749;DHT22;2388;53.582;9.962;2023-12-22T10:27:36;6.10;99.90
4749;DHT22;2388;53.582;9.962;2023-12-22T10:30:03;6.10;99.90
4749;DHT22;2388;53.582;9.962;2023-12-22T10:32:28;6.10;99.90
4749;DHT22;2388;53.582;9.962;2023-12-22T10:34:55;6.00;99.90
4749;DHT22;2388;53.582;9.962;2023-12-22T10:37:21;6.00;99.90
4749;DHT22;2388;53.582;9.962;2023-12-22T10:39:47;6.10;99.90
4749;DHT22;2388;53.582;9.962;2023-12-22T10:42:14;6.00;99.90
4749;DHT22;2388;53.582;9.962;2023-12-22T10:44:40;6.00;99.90
4749;DHT22;2388;53.582;9.962;2023-12-22T10:47:06;5.80;99.90
4749;DHT22;2388;53.582;9.962;2023-12-22T10:49:32;5.70;99.90
4749;DHT22;2388;53.582;9.962;2023-12-22T10:51:59;5.50;99.90
4749;DHT22;2388;53.582;9.962;2023-12-22T10:54:24;5.30;99.90
4749;DHT22;2388;53.582;9.962;2023-12-22T10:56:50;5.00;99.90
4749;DHT22;2388;53.582;9.962;2023-12-22T10:59:23;5.00;99.90
4749;DHT22;2388;53.582;9.962;2023-12-22T11:01:51;4.90;99.90
4749;DHT22;2388;53.582;9.962;2023-12-22T11:04:18;5.00;99.90
4749;DHT22;2388;53.582;9.962;2023-12-22T11:06:47;4.90;99.90
4749;DHT22;2388;53.582;9.962;2023-12-22T11:09:16;4.90;99.90
4749;DHT22;2388;53.582;9.962;2023-12-22T11:11:42;4.90;99.90
4749;DHT22;2388;53.582;9.962;2023-12-22T11:14:08;5.00;99.90
4749;DHT22;2388;53.582;9.962;2023-12-22T11:16:35;5.10;99.90
4749;DHT22;2388;53.582;9.962;2023-12-22T11:19:02;5.10;99.90
4749;DHT22;2388;53.582;9.962;2023-12-22T11:21:28;5.10;99.90
4749;DHT22;2388;53.582;9.962;2023-12-22T11:23:55;5.10;99.90
4749;DHT22;2388;53.582;9.962;2023-12-22T11:26:23;5.10;99.90
4749;DHT22;2388;53.582;9.962;2023-12-22T11:28:50;5.00;99.90
4749;DHT22;2388;53.582;9.962;2023-12-22T11:31:19;5.00;99.90
4749;DHT22;2388;53.582;9.962;2023-12-22T11:33:47;4.90;99.90
4749;DHT22;2388;53.582;9.962;2023-12-22T11:36:17;4.90;99.90
4749;DHT22;2388;53.582;9.962;2023-12-22T11:38:44;4.80;99.90
4749;DHT22;2388;53.582;9.962;2023-12-22T11:41:18;4.70;99.90
4749;DHT22;2388;53.582;9.962;2023-12-22T11:43:45;4.80;99.90
4749;DHT22;2388;53.582;9.962;2023-12-22T11:46:12;4.70;99.90
4749;DHT22;2388;53.582;9.962;2023-12-22T11:48:37;4.80;99.90
4749;DHT22;2388;53.582;9.962;2023-12-22T11:51:13;4.80;99.90
4749;DHT22;2388;53.582;9.962;2023-12-22T11:53:41;4.70;99.90
4749;DHT22;2388;53.582;9.962;2023-12-22T11:56:08;4.80;99.90
4749;DHT22;2388;53.582;9.962;2023-12-22T12:01:06;4.90;99.90
4749;DHT22;2388;53.582;9.962;2023-12-22T12:03:32;5.00;99.90
4749;DHT22;2388;53.582;9.962;2023-12-22T12:06:21;5.10;99.90
4749;DHT22;2388;53.582;9.962;2023-12-22T12:08:47;5.20;99.90
4749;DHT22;2388;53.582;9.962;2023-12-22T12:11:14;5.20;99.90
4749;DHT22;2388;53.582;9.962;2023-12-22T12:13:43;5.30;99.90
4749;DHT22;2388;53.582;9.962;2023-12-22T12:16:14;5.40;99.90
4749;DHT22;2388;53.582;9.962;2023-12-22T12:18:40;5.40;99.90
4749;DHT22;2388;53.582;9.962;2023-12-22T12:21:07;5.40;99.90
4749;DHT22;2388;53.582;9.962;2023-12-22T12:23:36;5.40;99.90
4749;DHT22;2388;53.582;9.962;2023-12-22T12:26:02;5.40;99.90
4749;DHT22;2388;53.582;9.962;2023-12-22T12:28:32;5.40;99.90
4749;DHT22;2388;53.582;9.962;2023-12-22T12:31:00;5.50;99.90
4749;DHT22;2388;53.582;9.962;2023-12-22T12:33:26;5.40;99.90
4749;DHT22;2388;53.582;9.962;2023-12-22T12:35:54;5.50;99.90
4749;DHT22;2388;53.582;9.962;2023-12-22T12:38:51;5.50;99.90
4749;DHT22;2388;53.582;9.962;2023-12-22T12:41:29;5.50;99.90
4749;DHT22;2388;53.582;9.962;2023-12-22T12:43:56;5.50;99.90
4749;DHT22;2388;53.582;9.962;2023-12-22T12:46:23;5.50;99.90
4749;DHT22;2388;53.582;9.962;2023-12-22T12:48:48;5.50;99.90
4749;DHT22;2388;53.582;9.962;2023-12-22T12:51:27;5.50;99.90
4749;DHT22;2388;53.582;9.962;2023-12-22T12:53:52;5.50;99.90
4749;DHT22;2388;53.582;9.962;2023-12-22T12:56:18;5.50;99.90
4749;DHT22;2388;53.582;9.962;2023-12-22T12:58:43;5.60;99.90
4749;DHT22;2388;53.582;9.962;2023-12-22T13:01:10;5.60;99.90
4749;DHT22;2388;53.582;9.962;2023-12-22T13:03:54;5.60;99.90
4749;DHT22;2388;53.582;9.962;2023-12-22T13:06:20;5.60;99.90
4749;DHT22;2388;53.582;9.962;2023-12-22T13:08:50;5.60;99.90
4749;DHT22;2388;53.582;9.962;2023-12-22T13:11:25;5.60;99.90
4749;DHT22;2388;53.582;9.962;2023-12-22T13:13:52;5.60;99.90
4749;DHT22;2388;53.582;9.962;2023-12-22T13:16:25;5.70;99.90
4749;DHT22;2388;53.582;9.962;2023-12-22T13:18:56;5.80;99.90
4749;DHT22;2388;53.582;9.962;2023-12-22T13:21:24;5.80;99.90
4749;DHT22;2388;53.582;9.962;2023-12-22T13:24:14;5.90;99.90
4749;DHT22;2388;53.582;9.962;2023-12-22T13:26:41;5.80;99.90
4749;DHT22;2388;53.582;9.962;2023-12-22T13:29:07;5.80;99.90
4749;DHT22;2388;53.582;9.962;2023-12-22T13:31:33;5.80;99.90
4749;DHT22;2388;53.582;9.962;2023-12-22T13:34:01;5.90;99.90
4749;DHT22;2388;53.582;9.962;2023-12-22T13:36:27;5.90;99.90
4749;DHT22;2388;53.582;9.962;2023-12-22T13:38:53;5.90;99.90
4749;DHT22;2388;53.582;9.962;2023-12-22T13:41:20;5.90;99.90
4749;DHT22;2388;53.582;9.962;2023-12-22T13:43:45;5.90;99.90
4749;DHT22;2388;53.582;9.962;2023-12-22T13:46:12;5.90;99.90
4749;DHT22;2388;53.582;9.962;2023-12-22T13:48:39;6.00;99.90
4749;DHT22;2388;53.582;9.962;2023-12-22T13:51:05;5.90;99.90
4749;DHT22;2388;53.582;9.962;2023-12-22T13:53:31;5.90;99.90
4749;DHT22;2388;53.582;9.962;2023-12-22T13:55:57;5.90;99.90
4749;DHT22;2388;53.582;9.962;2023-12-22T13:58:23;5.90;99.90
4749;DHT22;2388;53.582;9.962;2023-12-22T14:00:49;5.90;99.90
4749;DHT22;2388;53.582;9.962;2023-12-22T14:03:14;5.90;99.90
4749;DHT22;2388;53.582;9.962;2023-12-22T14:05:49;5.90;99.90
4749;DHT22;2388;53.582;9.962;2023-12-22T14:08:15;5.90;99.90
4749;DHT22;2388;53.582;9.962;2023-12-22T14:10:50;6.00;99.90
4749;DHT22;2388;53.582;9.962;2023-12-22T14:13:15;6.00;99.90
4749;DHT22;2388;53.582;9.962;2023-12-22T14:15:42;5.90;99.90
4749;DHT22;2388;53.582;9.962;2023-12-22T14:18:08;5.90;99.90
4749;DHT22;2388;53.582;9.962;2023-12-22T14:20:34;5.90;99.90
4749;DHT22;2388;53.582;9.962;2023-12-22T14:22:59;5.90;99.90
4749;DHT22;2388;53.582;9.962;2023-12-22T14:25:25;5.90;99.90
4749;DHT22;2388;53.582;9.962;2023-12-22T14:27:52;5.90;99.90
4749;DHT22;2388;53.582;9.962;2023-12-22T14:30:22;5.80;99.90
4749;DHT22;2388;53.582;9.962;2023-12-22T14:32:48;5.80;99.90
4749;DHT22;2388;53.582;9.962;2023-12-22T14:35:13;5.70;99.90
4749;DHT22;2388;53.582;9.962;2023-12-22T14:37:39;5.70;99.90
4749;DHT22;2388;53.582;9.962;2023-12-22T14:40:05;5.60;99.90
4749;DHT22;2388;53.582;9.962;2023-12-22T14:42:32;5.70;99.90
4749;DHT22;2388;53.582;9.962;2023-12-22T14:44:57;5.60;99.90
4749;DHT22;2388;53.582;9.962;2023-12-22T14:47:22;5.60;99.90
4749;DHT22;2388;53.582;9.962;2023-12-22T14:49:48;5.60;99.90
4749;DHT22;2388;53.582;9.962;2023-12-22T14:52:14;5.60;99.90
4749;DHT22;2388;53.582;9.962;2023-12-22T14:54:39;5.50;99.90
4749;DHT22;2388;53.582;9.962;2023-12-22T14:57:05;5.60;99.90
4749;DHT22;2388;53.582;9.962;2023-12-22T14:59:30;5.60;99.90
4749;DHT22;2388;53.582;9.962;2023-12-22T15:01:56;5.60;99.90
4749;DHT22;2388;53.582;9.962;2023-12-22T15:04:22;5.60;99.90
4749;DHT22;2388;53.582;9.962;2023-12-22T15:06:49;5.60;99.90
4749;DHT22;2388;53.582;9.962;2023-12-22T15:09:15;5.60;99.90
4749;DHT22;2388;53.582;9.962;2023-12-22T15:11:44;5.50;99.90
4749;DHT22;2388;53.582;9.962;2023-12-22T15:14:14;5.50;99.90
4749;DHT22;2388;53.582;9.962;2023-12-22T15:16:41;5.50;99.90
4749;DHT22;2388;53.582;9.962;2023-12-22T15:19:06;5.50;99.90
4749;DHT22;2388;53.582;9.962;2023-12-22T15:21:32;5.50;99.90
4749;DHT22;2388;53.582;9.962;2023-12-22T15:23:58;5.50;99.90
4749;DHT22;2388;53.582;9.962;2023-12-22T15:26:24;5.50;99.90
4749;DHT22;2388;53.582;9.962;2023-12-22T15:28:52;5.60;99.90
4749;DHT22;2388;53.582;9.962;2023-12-22T15:31:18;5.60;99.90
4749;DHT22;2388;53.582;9.962;2023-12-22T15:33:43;5.60;99.90
4749;DHT22;2388;53.582;9.962;2023-12-22T15:36:09;5.60;99.90
4749;DHT22;2388;53.582;9.962;2023-12-22T15:38:34;5.60;99.90
4749;DHT22;2388;53.582;9.962;2023-12-22T15:41:00;5.60;99.90
4749;DHT22;2388;53.582;9.962;2023-12-22T15:43:27;5.60;99.90
4749;DHT22;2388;53.582;9.962;2023-12-22T15:45:52;5.60;99.90
4749;DHT22;2388;53.582;9.962;2023-12-22T15:48:17;5.60;99.90
4749;DHT22;2388;53.582;9.962;2023-12-22T15:50:44;5.60;99.90
4749;DHT22;2388;53.582;9.962;2023-12-22T15:53:10;5.50;99.90
4749;DHT22;2388;53.582;9.962;2023-12-22T15:55:36;5.40;99.90
4749;DHT22;2388;53.582;9.962;2023-12-22T15:58:01;5.30;99.90
4749;DHT22;2388;53.582;9.962;2023-12-22T16:00:27;5.30;99.90
4749;DHT22;2388;53.582;9.962;2023-12-22T16:02:53;5.20;99.90
4749;DHT22;2388;53.582;9.962;2023-12-22T16:05:19;5.20;99.90
4749;DHT22;2388;53.582;9.962;2023-12-22T16:07:44;5.10;99.90
4749;DHT22;2388;53.582;9.962;2023-12-22T16:10:10;5.10;99.90
4749;DHT22;2388;53.582;9.962;2023-12-22T16:12:36;5.20;99.90
4749;DHT22;2388;53.582;9.962;2023-12-22T16:15:02;5.10;99.90
4749;DHT22;2388;53.582;9.962;2023-12-22T16:17:28;5.10;99.90